createdAt,value
2022-10-09T00:02:39.502Z,3.60
2022-10-09T00:07:44.600Z,3.20
2022-10-09T00:12:48.322Z,2.80
2022-10-09T00:17:52.051Z,3.27
2022-10-09T00:22:56.830Z,2.80
2022-10-09T00:28:00.562Z,3.07
2022-10-09T00:33:03.869Z,2.90
2022-10-09T00:38:09.326Z,3.10
2022-10-09T00:43:16.242Z,3.30
2022-10-09T00:48:20.275Z,4.20
2022-10-09T00:53:26.095Z,3.37
2022-10-09T00:58:29.567Z,3.53
2022-10-09T01:03:33.393Z,3.77
2022-10-09T01:08:39.691Z,3.63
2022-10-09T01:13:48.250Z,3.70
2022-10-09T01:18:55.052Z,3.30
2022-10-09T01:24:10.715Z,3.53
2022-10-09T01:29:16.610Z,3.13
2022-10-09T01:34:20.767Z,3.20
2022-10-09T01:39:25.517Z,2.80
2022-10-09T01:44:32.113Z,3.00
2022-10-09T01:49:42.320Z,2.80
2022-10-09T01:54:52.973Z,3.30
2022-10-09T02:00:01.587Z,3.00
2022-10-09T02:05:19.421Z,3.20
2022-10-09T02:10:23.371Z,3.07
2022-10-09T02:15:29.990Z,3.53
2022-10-09T02:20:35.036Z,3.83
2022-10-09T02:25:39.072Z,3.27
2022-10-09T02:30:47.648Z,3.23
2022-10-09T02:35:51.156Z,4.03
2022-10-09T02:40:58.118Z,3.77
2022-10-09T02:46:02.948Z,4.07
2022-10-09T02:51:06.777Z,3.20
2022-10-09T02:56:10.162Z,3.77
2022-10-09T03:01:15.261Z,4.17
2022-10-09T03:06:21.255Z,4.37
2022-10-09T03:11:25.462Z,3.97
2022-10-09T03:16:30.712Z,3.97
2022-10-09T03:21:34.101Z,4.80
2022-10-09T03:26:37.616Z,4.60
2022-10-09T03:31:57.911Z,4.93
2022-10-09T03:37:01.626Z,4.10
2022-10-09T03:42:05.291Z,4.63
2022-10-09T03:47:10.144Z,5.33
2022-10-09T03:52:13.587Z,5.23
2022-10-09T03:57:17.257Z,4.83
2022-10-09T04:02:22.154Z,5.23
2022-10-09T04:07:25.613Z,5.97
2022-10-09T04:12:29.325Z,4.50
2022-10-09T04:17:34.111Z,4.33
2022-10-09T04:22:37.850Z,4.73
2022-10-09T04:27:41.824Z,4.50
2022-10-09T04:32:48.440Z,4.30
2022-10-09T04:37:52.262Z,4.57
2022-10-09T04:42:56.471Z,4.40
2022-10-09T04:48:01.418Z,7.83
2022-10-09T04:53:04.795Z,5.90
2022-10-09T04:58:08.477Z,5.80
2022-10-09T05:03:14.297Z,5.33
2022-10-09T05:08:17.737Z,5.73
2022-10-09T05:13:21.166Z,5.40
2022-10-09T05:18:26.039Z,4.90
2022-10-09T05:23:29.448Z,6.07
2022-10-09T05:28:33.301Z,5.70
2022-10-09T05:33:38.302Z,4.93
2022-10-09T05:38:41.903Z,5.57
2022-10-09T05:43:46.045Z,6.30
2022-10-09T05:48:54.648Z,5.67
2022-10-09T05:53:58.543Z,13.93
2022-10-09T05:59:02.622Z,6.07
2022-10-09T06:04:09.992Z,9.17
2022-10-09T06:09:14.202Z,8.90
2022-10-09T06:14:17.982Z,7.10
2022-10-09T06:19:23.092Z,7.20
2022-10-09T06:24:29.383Z,6.87
2022-10-09T06:29:33.262Z,8.27
2022-10-09T06:34:38.127Z,9.13
2022-10-09T06:39:41.502Z,6.63
2022-10-09T06:44:46.149Z,7.03
2022-10-09T06:49:50.862Z,7.00
2022-10-09T06:54:54.562Z,7.57
2022-10-09T06:59:57.903Z,7.00
2022-10-09T07:05:02.687Z,6.60
2022-10-09T07:10:06.635Z,7.40
2022-10-09T07:15:10.603Z,7.47
2022-10-09T07:20:15.521Z,7.03
2022-10-09T07:25:18.909Z,5.60
2022-10-09T07:30:22.302Z,5.33
2022-10-09T07:35:27.199Z,5.73
2022-10-09T07:40:31.238Z,5.00
2022-10-09T07:45:36.726Z,4.83
2022-10-09T07:50:41.609Z,4.63
2022-10-09T07:55:45.905Z,6.70
2022-10-09T08:00:49.273Z,5.00
2022-10-09T08:05:56.978Z,4.37
2022-10-09T08:13:36.920Z,4.47
2022-10-09T08:18:40.276Z,4.03
2022-10-09T08:23:44.082Z,5.93
2022-10-09T08:28:52.608Z,9.80
2022-10-09T08:33:56.662Z,4.53
2022-10-09T08:39:00.096Z,4.00
2022-10-09T08:44:06.269Z,3.87
2022-10-09T08:49:17.436Z,3.73
2022-10-09T08:54:25.823Z,3.90
2022-10-09T08:59:30.609Z,2.73
2022-10-09T09:04:39.150Z,2.90
2022-10-09T09:09:48.122Z,6.70
2022-10-09T09:15:01.152Z,4.30
2022-10-09T09:20:06.704Z,2.53
2022-10-09T09:25:18.214Z,4.60
2022-10-09T09:30:25.397Z,9.40
2022-10-09T09:35:33.628Z,3.40
2022-10-09T09:40:38.458Z,2.50
2022-10-09T09:45:44.938Z,6.17
2022-10-09T09:51:04.943Z,3.23
2022-10-09T09:56:16.544Z,2.40
2022-10-09T10:01:25.577Z,3.63
2022-10-09T10:06:30.718Z,2.43
2022-10-09T10:11:35.870Z,2.47
2022-10-09T10:16:41.516Z,2.27
2022-10-09T10:21:48.352Z,2.30
2022-10-09T10:26:53.489Z,2.07
2022-10-09T10:32:01.287Z,2.60
2022-10-09T10:37:10.848Z,2.10
2022-10-09T10:42:18.653Z,2.23
2022-10-09T10:47:25.765Z,1.77
2022-10-09T10:52:35.702Z,1.87
2022-10-09T10:57:44.855Z,2.07
2022-10-09T11:03:16.305Z,1.47
2022-10-09T11:08:24.909Z,1.60
2022-10-09T11:13:32.348Z,2.00
2022-10-09T11:18:42.177Z,2.17
2022-10-09T11:23:51.344Z,1.90
2022-10-09T11:28:57.885Z,1.80
2022-10-09T11:34:05.763Z,2.00
2022-10-09T11:39:13.967Z,1.67
2022-10-09T11:44:23.173Z,1.83
2022-10-09T11:49:31.070Z,1.63
2022-10-09T11:54:35.268Z,1.90
2022-10-09T11:59:42.404Z,2.13
2022-10-09T12:04:54.792Z,2.47
2022-10-09T12:10:00.918Z,2.00
2022-10-09T12:15:20.295Z,2.23
2022-10-09T12:20:25.579Z,2.00
2022-10-09T12:25:30.568Z,2.00
2022-10-09T12:30:36.331Z,4.10
2022-10-09T12:35:42.639Z,2.80
2022-10-09T12:40:47.418Z,2.63
2022-10-09T12:45:51.957Z,2.53
2022-10-09T12:50:57.040Z,2.40
2022-10-09T12:56:03.448Z,2.30
2022-10-09T13:01:08.721Z,2.50
2022-10-09T13:06:17.213Z,2.57
2022-10-09T13:11:22.903Z,2.47
2022-10-09T13:16:26.664Z,2.07
2022-10-09T13:21:35.252Z,2.13
2022-10-09T13:26:39.544Z,1.80
2022-10-09T13:31:44.235Z,2.30
2022-10-09T13:36:49.001Z,2.10
2022-10-09T13:41:55.726Z,2.20
2022-10-09T13:46:59.279Z,2.97
2022-10-09T13:52:04.374Z,1.90
2022-10-09T13:57:07.740Z,1.83
2022-10-09T14:02:11.715Z,2.07
2022-10-09T14:07:16.493Z,1.90
2022-10-09T14:12:19.908Z,1.90
2022-10-09T14:17:23.246Z,2.00
2022-10-09T14:22:28.148Z,1.70
2022-10-09T14:27:31.560Z,2.13
2022-10-09T14:32:35.003Z,2.10
2022-10-09T14:37:42.220Z,2.20
2022-10-09T14:42:45.891Z,2.10
2022-10-09T14:47:49.378Z,2.33
2022-10-09T14:52:54.284Z,2.80
2022-10-09T14:57:57.791Z,2.10
2022-10-09T15:03:01.963Z,5.83
2022-10-09T15:08:06.662Z,2.60
2022-10-09T15:13:10.864Z,3.07
2022-10-09T15:18:14.452Z,5.80
2022-10-09T15:23:19.183Z,5.40
2022-10-09T15:28:22.701Z,3.07
2022-10-09T15:33:26.155Z,3.53
2022-10-09T15:38:31.000Z,5.37
2022-10-09T15:43:37.648Z,5.73
2022-10-09T15:48:43.939Z,4.33
2022-10-09T15:53:49.518Z,4.33
2022-10-09T15:58:53.719Z,3.10
2022-10-09T16:03:57.100Z,2.90
2022-10-09T16:09:04.066Z,3.23
2022-10-09T16:14:07.416Z,3.70
2022-10-09T16:19:10.813Z,5.17
2022-10-09T16:24:15.527Z,4.47
2022-10-09T16:29:19.004Z,2.90
2022-10-09T16:34:22.451Z,5.20
2022-10-09T16:39:27.203Z,3.83
2022-10-09T16:44:31.426Z,2.67
2022-10-09T16:49:34.995Z,2.63
2022-10-09T16:54:40.146Z,3.10
2022-10-09T16:59:44.134Z,3.13
2022-10-09T17:04:47.654Z,3.07
2022-10-09T17:09:52.509Z,2.67
2022-10-09T17:14:55.909Z,3.43
2022-10-09T17:19:59.158Z,3.13
2022-10-09T17:25:03.949Z,3.20
2022-10-09T17:30:07.817Z,3.30
2022-10-09T17:35:11.156Z,4.37
2022-10-09T17:40:15.944Z,3.40
2022-10-09T17:45:19.198Z,4.10
2022-10-09T17:50:22.962Z,3.30
2022-10-09T17:55:27.764Z,3.23
2022-10-09T18:00:31.150Z,2.90
2022-10-09T18:05:38.644Z,3.50
2022-10-09T18:10:45.302Z,3.70
2022-10-09T18:15:48.738Z,4.17
2022-10-09T18:20:52.150Z,2.70
2022-10-09T18:25:56.906Z,3.40
2022-10-09T18:31:00.351Z,2.97
2022-10-09T18:36:04.898Z,3.10
2022-10-09T18:41:10.529Z,3.00
2022-10-09T18:46:14.438Z,3.13
2022-10-09T18:51:19.540Z,3.77
2022-10-09T18:56:24.545Z,3.60
2022-10-09T19:01:27.987Z,2.90
2022-10-09T19:06:31.395Z,3.37
2022-10-09T19:11:36.160Z,4.07
2022-10-09T19:16:39.679Z,4.17
2022-10-09T19:21:44.047Z,2.70
2022-10-09T19:26:48.802Z,3.40
2022-10-09T19:31:52.274Z,2.80
2022-10-09T19:36:55.798Z,2.90
2022-10-09T19:42:00.503Z,3.03
2022-10-09T19:47:03.870Z,2.83
2022-10-09T19:52:07.501Z,2.87
2022-10-09T19:57:12.215Z,2.90
2022-10-09T20:02:15.687Z,2.63
2022-10-09T20:07:19.115Z,2.60
2022-10-09T20:12:23.845Z,2.27
2022-10-09T20:17:27.273Z,2.50
2022-10-09T20:22:30.640Z,2.80
2022-10-09T20:27:35.530Z,2.30
2022-10-09T20:32:39.051Z,2.47
2022-10-09T20:37:42.731Z,2.97
2022-10-09T20:42:48.293Z,2.57
2022-10-09T20:47:51.855Z,2.53
2022-10-09T20:52:55.424Z,3.13
2022-10-09T20:58:00.446Z,2.40
2022-10-09T21:03:03.826Z,3.20
2022-10-09T21:08:07.565Z,2.90
2022-10-09T21:13:12.504Z,3.23
2022-10-09T21:18:17.279Z,2.93
2022-10-09T21:23:21.014Z,3.20
2022-10-09T21:28:26.487Z,2.50
2022-10-09T21:33:29.900Z,2.80
2022-10-09T21:38:33.565Z,3.00
2022-10-09T21:43:38.309Z,3.10
2022-10-09T21:48:41.905Z,3.20
2022-10-09T21:53:45.575Z,3.20
2022-10-09T21:58:51.204Z,3.07
2022-10-09T22:03:54.729Z,3.77
2022-10-09T22:08:58.096Z,3.00
2022-10-09T22:14:02.956Z,3.00
2022-10-09T22:19:06.773Z,3.03
2022-10-09T22:24:10.174Z,3.70
2022-10-09T22:29:14.887Z,3.37
2022-10-09T22:34:18.315Z,2.93
2022-10-09T22:39:21.675Z,3.57
2022-10-09T22:44:26.528Z,3.83
2022-10-09T22:49:29.856Z,3.77
2022-10-09T22:54:33.200Z,3.40
2022-10-09T22:59:38.219Z,3.87
2022-10-09T23:04:41.910Z,3.07
2022-10-09T23:09:45.361Z,3.00
2022-10-09T23:14:50.185Z,3.33
2022-10-09T23:19:53.459Z,3.43
2022-10-09T23:24:57.104Z,3.13
2022-10-09T23:30:01.922Z,4.50
2022-10-09T23:35:05.634Z,5.53
2022-10-09T23:40:09.344Z,5.20
2022-10-09T23:45:14.259Z,4.37
2022-10-09T23:50:17.642Z,3.77
2022-10-09T23:55:20.926Z,3.67
